Anthony, Florida
Current Conditions -  °F | °C
As of 3:50 PM on Saturday 20 Dec 2014 (Local Time) from KOCF Reporting Station
Scattered Clouds Scattered Clouds  
Wind Chill: 73°   Ceiling: Unl
Heat Index: 73°   Visibility: 10mi
Dew Point: 57°   Wind: 6mph
Humidity: 57%   Direction: 160°SSE
Pressure: 30.05"   Gusts: NA
Location:  29.29°N, 82.11°W
Report Text: KOCF 202050Z 16005KT 10SM SCT110 23/14 A3005
Loading
Personal Weather Stations






























Interactive Weather Map New forecast layout! Learn more

10-Day Weather Forecast

Advertisements
Track Severe Weather on mobile